sensor_id;sensor_type;location;lat;lon;timestamp;temperature;humidity
36690;DHT22;22676;51.120;3.702;2022-12-29T18:55:09;24.00;42.40
36690;DHT22;22676;51.120;3.702;2022-12-29T18:57:36;23.90;43.60
36690;DHT22;22676;51.120;3.702;2022-12-29T19:00:01;24.10;44.00
36690;DHT22;22676;51.120;3.702;2022-12-29T19:02:27;24.40;43.90
36690;DHT22;22676;51.120;3.702;2022-12-29T19:04:53;24.50;44.20
36690;DHT22;22676;51.120;3.702;2022-12-29T19:07:18;24.60;44.20
36690;DHT22;22676;51.120;3.702;2022-12-29T19:09:44;24.70;43.80
36690;DHT22;22676;51.120;3.702;2022-12-29T19:12:12;24.70;43.30
36690;DHT22;22676;51.120;3.702;2022-12-29T19:14:39;24.80;43.00
36690;DHT22;22676;51.120;3.702;2022-12-29T19:17:06;24.80;43.20
36690;DHT22;22676;51.120;3.702;2022-12-29T19:19:33;24.90;42.90
36690;DHT22;22676;51.120;3.702;2022-12-29T19:21:58;25.00;43.60
36690;DHT22;22676;51.120;3.702;2022-12-29T19:24:24;25.00;44.20
36690;DHT22;22676;51.120;3.702;2022-12-29T19:26:49;24.70;44.60
36690;DHT22;22676;51.120;3.702;2022-12-29T19:29:15;24.80;45.10
36690;DHT22;22676;51.120;3.702;2022-12-29T19:31:40;24.80;44.90
36690;DHT22;22676;51.120;3.702;2022-12-29T19:34:06;24.90;44.90
36690;DHT22;22676;51.120;3.702;2022-12-29T19:36:32;24.90;44.70
36690;DHT22;22676;51.120;3.702;2022-12-29T19:38:57;25.00;44.40
36690;DHT22;22676;51.120;3.702;2022-12-29T19:41:23;25.00;44.10
36690;DHT22;22676;51.120;3.702;2022-12-29T19:43:49;25.00;44.20
36690;DHT22;22676;51.120;3.702;2022-12-29T19:46:15;25.30;43.80
36690;DHT22;22676;51.120;3.702;2022-12-29T19:48:41;25.30;43.60
36690;DHT22;22676;51.120;3.702;2022-12-29T19:51:12;25.30;43.80
36690;DHT22;22676;51.120;3.702;2022-12-29T19:53:39;25.20;43.70
36690;DHT22;22676;51.120;3.702;2022-12-29T19:56:06;25.00;43.70
36690;DHT22;22676;51.120;3.702;2022-12-29T19:58:32;24.90;43.80
36690;DHT22;22676;51.120;3.702;2022-12-29T20:01:05;25.00;43.80
36690;DHT22;22676;51.120;3.702;2022-12-29T20:03:31;24.80;43.60
36690;DHT22;22676;51.120;3.702;2022-12-29T20:05:57;24.60;44.00
36690;DHT22;22676;51.120;3.702;2022-12-29T20:08:23;24.50;43.50
36690;DHT22;22676;51.120;3.702;2022-12-29T20:11:10;24.40;43.50
36690;DHT22;22676;51.120;3.702;2022-12-29T20:13:37;24.10;43.80
36690;DHT22;22676;51.120;3.702;2022-12-29T20:16:04;24.00;44.20
36690;DHT22;22676;51.120;3.702;2022-12-29T20:18:31;23.90;44.30
36690;DHT22;22676;51.120;3.702;2022-12-29T20:21:00;23.80;44.60
36690;DHT22;22676;51.120;3.702;2022-12-29T20:23:26;23.80;44.00
36690;DHT22;22676;51.120;3.702;2022-12-29T20:25:52;23.80;44.50
36690;DHT22;22676;51.120;3.702;2022-12-29T20:28:18;23.90;44.30
36690;DHT22;22676;51.120;3.702;2022-12-29T20:30:44;23.90;45.00
36690;DHT22;22676;51.120;3.702;2022-12-29T20:33:09;23.90;45.00
36690;DHT22;22676;51.120;3.702;2022-12-29T20:35:35;23.90;45.20
36690;DHT22;22676;51.120;3.702;2022-12-29T20:38:01;23.80;45.30
36690;DHT22;22676;51.120;3.702;2022-12-29T20:40:26;23.80;45.40
36690;DHT22;22676;51.120;3.702;2022-12-29T20:42:52;23.70;45.70
36690;DHT22;22676;51.120;3.702;2022-12-29T20:45:17;23.70;45.80
36690;DHT22;22676;51.120;3.702;2022-12-29T20:47:43;23.70;45.80
36690;DHT22;22676;51.120;3.702;2022-12-29T20:50:08;23.60;46.00
36690;DHT22;22676;51.120;3.702;2022-12-29T20:52:34;23.60;46.00
36690;DHT22;22676;51.120;3.702;2022-12-29T20:55:00;23.60;46.30
36690;DHT22;22676;51.120;3.702;2022-12-29T20:57:25;23.60;46.50
36690;DHT22;22676;51.120;3.702;2022-12-29T20:59:51;23.50;46.30
36690;DHT22;22676;51.120;3.702;2022-12-29T21:02:17;23.50;46.80
36690;DHT22;22676;51.120;3.702;2022-12-29T21:04:43;23.50;46.70
36690;DHT22;22676;51.120;3.702;2022-12-29T21:07:09;23.40;46.50
36690;DHT22;22676;51.120;3.702;2022-12-29T21:09:34;23.40;46.70
36690;DHT22;22676;51.120;3.702;2022-12-29T21:11:59;23.40;46.90
36690;DHT22;22676;51.120;3.702;2022-12-29T21:14:26;23.40;46.90
36690;DHT22;22676;51.120;3.702;2022-12-29T21:16:52;23.30;47.20
36690;DHT22;22676;51.120;3.702;2022-12-29T21:19:18;23.40;46.90
36690;DHT22;22676;51.120;3.702;2022-12-29T21:21:43;23.30;47.30
36690;DHT22;22676;51.120;3.702;2022-12-29T21:24:09;23.30;46.90
36690;DHT22;22676;51.120;3.702;2022-12-29T21:26:34;23.30;47.00
36690;DHT22;22676;51.120;3.702;2022-12-29T21:29:00;23.40;47.10
36690;DHT22;22676;51.120;3.702;2022-12-29T21:31:28;23.40;47.00
36690;DHT22;22676;51.120;3.702;2022-12-29T21:33:54;23.40;47.30
36690;DHT22;22676;51.120;3.702;2022-12-29T21:36:20;23.40;47.60
36690;DHT22;22676;51.120;3.702;2022-12-29T21:38:46;23.40;47.00
36690;DHT22;22676;51.120;3.702;2022-12-29T21:41:12;23.40;47.00
36690;DHT22;22676;51.120;3.702;2022-12-29T21:43:39;23.40;47.40
36690;DHT22;22676;51.120;3.702;2022-12-29T21:46:05;23.40;47.40
36690;DHT22;22676;51.120;3.702;2022-12-29T21:48:31;23.40;47.30
36690;DHT22;22676;51.120;3.702;2022-12-29T21:51:07;23.40;47.50
36690;DHT22;22676;51.120;3.702;2022-12-29T21:53:55;23.40;47.90
36690;DHT22;22676;51.120;3.702;2022-12-29T21:56:41;23.40;47.70
36690;DHT22;22676;51.120;3.702;2022-12-29T21:59:10;23.40;47.80
36690;DHT22;22676;51.120;3.702;2022-12-29T22:01:54;23.40;47.80
36690;DHT22;22676;51.120;3.702;2022-12-29T22:04:38;23.40;47.80
36690;DHT22;22676;51.120;3.702;2022-12-29T22:07:23;23.40;48.00
36690;DHT22;22676;51.120;3.702;2022-12-29T22:10:07;23.30;47.90
36690;DHT22;22676;51.120;3.702;2022-12-29T22:12:51;23.30;47.90
36690;DHT22;22676;51.120;3.702;2022-12-29T22:15:25;23.30;47.70
36690;DHT22;22676;51.120;3.702;2022-12-29T22:17:51;23.40;47.80
36690;DHT22;22676;51.120;3.702;2022-12-29T22:20:17;23.40;47.70
36690;DHT22;22676;51.120;3.702;2022-12-29T22:22:43;23.20;48.10
36690;DHT22;22676;51.120;3.702;2022-12-29T22:25:09;23.30;47.90
36690;DHT22;22676;51.120;3.702;2022-12-29T22:27:34;23.20;48.40
36690;DHT22;22676;51.120;3.702;2022-12-29T22:30:00;23.20;48.00
36690;DHT22;22676;51.120;3.702;2022-12-29T22:32:25;23.30;48.70
36690;DHT22;22676;51.120;3.702;2022-12-29T22:34:51;23.20;48.30
36690;DHT22;22676;51.120;3.702;2022-12-29T22:37:17;23.20;48.40
36690;DHT22;22676;51.120;3.702;2022-12-29T22:39:42;23.00;48.60
36690;DHT22;22676;51.120;3.702;2022-12-29T22:42:08;23.00;48.60
36690;DHT22;22676;51.120;3.702;2022-12-29T22:44:33;23.00;49.20
36690;DHT22;22676;51.120;3.702;2022-12-29T22:46:59;23.00;49.30
36690;DHT22;22676;51.120;3.702;2022-12-29T22:49:25;22.90;49.00
36690;DHT22;22676;51.120;3.702;2022-12-29T22:51:51;22.90;49.10
36690;DHT22;22676;51.120;3.702;2022-12-29T22:54:16;22.90;48.70
36690;DHT22;22676;51.120;3.702;2022-12-29T22:56:45;22.80;48.80
36690;DHT22;22676;51.120;3.702;2022-12-29T22:59:11;22.70;48.80
36690;DHT22;22676;51.120;3.702;2022-12-29T23:01:36;22.70;49.20
36690;DHT22;22676;51.120;3.702;2022-12-29T23:04:02;22.70;49.50
36690;DHT22;22676;51.120;3.702;2022-12-29T23:06:28;22.70;48.80
36690;DHT22;22676;51.120;3.702;2022-12-29T23:08:54;22.70;48.50
36690;DHT22;22676;51.120;3.702;2022-12-29T23:11:20;22.80;48.60
36690;DHT22;22676;51.120;3.702;2022-12-29T23:13:46;22.70;48.90
36690;DHT22;22676;51.120;3.702;2022-12-29T23:16:12;22.70;48.60
36690;DHT22;22676;51.120;3.702;2022-12-29T23:18:37;22.70;49.20
36690;DHT22;22676;51.120;3.702;2022-12-29T23:21:03;22.60;49.10
36690;DHT22;22676;51.120;3.702;2022-12-29T23:23:29;22.60;48.80
36690;DHT22;22676;51.120;3.702;2022-12-29T23:26:13;22.60;48.80
36690;DHT22;22676;51.120;3.702;2022-12-29T23:28:38;22.50;48.80
36690;DHT22;22676;51.120;3.702;2022-12-29T23:31:04;22.50;49.00
36690;DHT22;22676;51.120;3.702;2022-12-29T23:33:30;22.50;49.20
36690;DHT22;22676;51.120;3.702;2022-12-29T23:35:55;22.50;50.30
36690;DHT22;22676;51.120;3.702;2022-12-29T23:38:21;22.50;49.60
36690;DHT22;22676;51.120;3.702;2022-12-29T23:40:46;22.50;49.20
36690;DHT22;22676;51.120;3.702;2022-12-29T23:43:12;22.50;49.30
36690;DHT22;22676;51.120;3.702;2022-12-29T23:45:37;22.40;49.40
36690;DHT22;22676;51.120;3.702;2022-12-29T23:48:03;22.40;49.20
36690;DHT22;22676;51.120;3.702;2022-12-29T23:50:29;22.30;49.40
36690;DHT22;22676;51.120;3.702;2022-12-29T23:52:55;22.40;49.60
36690;DHT22;22676;51.120;3.702;2022-12-29T23:55:20;22.40;49.40
36690;DHT22;22676;51.120;3.702;2022-12-29T23:57:46;22.30;49.30
